Terminal Aerodrome Forecast
Issued by NWS

Home | Current Version | Previous Version | Text Only | Print | Product List | Glossary On
Versions: 1 2 3 4 5 6 7 8 9 10 11 12 13 14 15 16 17 18 19
401
FTUS41 KBTV 101721
TAFMPV
TAF
KMPV 101721Z 1018/1118 33006KT P6SM BKN040
     FM102300 00000KT P6SM VCSH BKN020
     FM110800 00000KT P6SM SCT040=

USA.gov is the U.S. government's official web portal to all federal, state and local government web resources and services.